KBUF/BUF METAR and TAF weather

Enter ICAO airport designator
Station Type Date Time Source
KBUF METAR 2022/05/26 03:54 UTC NOAA

KBUF 260354Z 16008KT 10SM OVC200 19/11 A3009 RMK AO2 SLP188 T01940111


Station Type Date Time Source
KBUF Decoded METAR 2022/05/26 03:54 UTC NOAA

GREATER BUFFALO INTERNATIONAL AIRPORT , NY, United States (KBUF) 42-56N 078-44W 225M
May 25, 2022 - 11:54 PM EDT / 2022.05.26 0354 UTC
Wind: from the SSE (160 degrees) at 9 MPH (8 KT):0
Visibility: 10 mile(s):0
Sky conditions: overcast
Temperature: 66.9 F (19.4 C)
Dew Point: 52.0 F (11.1 C)
Relative Humidity: 58%
Pressure (altimeter): 30.09 in. Hg (1018 hPa)
ob: KBUF 260354Z 16008KT 10SM OVC200 19/11 A3009 RMK AO2 SLP188 T01940111
cycle: 4

Station Type Date Time Source
KBUF TAF 2022/05/26 03:58 UTC NOAA

TAF
AMD KBUF 260257Z 2603/2624 17012KT P6SM OVC120
FM260600 18012G20KT P6SM OVC120
FM261500 21014G25KT P6SM BKN070

Example: see airport list